createdAt,value
2023-01-06T00:02:23.703Z,4.05
2023-01-06T00:05:28.433Z,4.04
2023-01-06T00:08:30.398Z,4.03
2023-01-06T00:11:32.447Z,4.00
2023-01-06T00:14:34.200Z,3.98
2023-01-06T00:17:35.694Z,3.96
2023-01-06T00:20:37.514Z,3.95
2023-01-06T00:23:39.695Z,3.95
2023-01-06T00:26:41.244Z,3.93
2023-01-06T00:29:42.892Z,3.91
2023-01-06T00:32:44.523Z,3.89
2023-01-06T00:35:46.045Z,3.86
2023-01-06T00:38:49.156Z,3.83
2023-01-06T00:41:50.767Z,3.82
2023-01-06T00:44:52.371Z,3.81
2023-01-06T00:47:54.185Z,3.80
2023-01-06T00:51:00.778Z,3.79
2023-01-06T00:54:02.396Z,3.78
2023-01-06T00:57:05.452Z,3.79
2023-01-06T01:00:09.202Z,3.76
2023-01-06T01:03:10.943Z,3.75
2023-01-06T01:06:12.703Z,3.74
2023-01-06T01:09:16.708Z,3.73
2023-01-06T01:12:18.692Z,3.70
2023-01-06T01:15:20.294Z,3.69
2023-01-06T01:18:21.931Z,3.67
2023-01-06T01:21:23.687Z,3.64
2023-01-06T01:24:25.251Z,3.62
2023-01-06T01:27:26.932Z,3.61
2023-01-06T01:30:28.699Z,3.59
2023-01-06T01:33:30.614Z,3.56
2023-01-06T01:36:32.408Z,3.54
2023-01-06T01:39:34.038Z,3.54
2023-01-06T01:42:35.573Z,3.53
2023-01-06T01:45:37.336Z,3.53
2023-01-06T01:48:38.957Z,3.51
2023-01-06T01:51:48.658Z,3.50
2023-01-06T01:54:50.933Z,3.48
2023-01-06T01:57:59.072Z,3.47
2023-01-06T02:01:00.762Z,3.47
2023-01-06T02:04:02.754Z,3.46
2023-01-06T02:07:04.887Z,3.45
2023-01-06T02:10:14.582Z,3.43
2023-01-06T02:13:16.210Z,3.43
2023-01-06T02:16:27.594Z,3.42
2023-01-06T02:19:35.292Z,3.41
2023-01-06T02:23:05.163Z,3.40
2023-01-06T02:26:29.100Z,3.39
2023-01-06T02:29:58.457Z,3.37
2023-01-06T02:33:06.179Z,3.35
2023-01-06T02:36:30.079Z,3.33
2023-01-06T02:40:02.546Z,3.31
2023-01-06T02:43:26.359Z,3.30
2023-01-06T02:46:52.749Z,3.27
2023-01-06T02:50:07.293Z,3.24
2023-01-06T02:53:23.611Z,3.22
2023-01-06T02:56:29.631Z,3.19
2023-01-06T02:59:36.335Z,3.18
2023-01-06T03:02:40.184Z,3.17
2023-01-06T03:05:44.136Z,3.16
2023-01-06T03:08:47.561Z,3.14
2023-01-06T03:11:51.522Z,3.13
2023-01-06T03:14:55.259Z,3.12
2023-01-06T03:17:57.138Z,3.09
2023-01-06T03:21:04.266Z,3.09
2023-01-06T03:24:07.104Z,3.08
2023-01-06T03:27:09.272Z,3.07
2023-01-06T03:30:12.568Z,3.05
2023-01-06T03:33:23.711Z,3.03
2023-01-06T03:36:41.225Z,3.02
2023-01-06T03:40:09.581Z,3.00
2023-01-06T03:43:21.451Z,2.98
2023-01-06T03:46:27.693Z,2.97
2023-01-06T03:49:35.084Z,2.96
2023-01-06T03:52:42.552Z,2.96
2023-01-06T03:55:46.920Z,2.95
2023-01-06T03:58:51.751Z,2.95
2023-01-06T04:01:53.379Z,2.94
2023-01-06T04:05:02.193Z,2.94
2023-01-06T04:08:03.923Z,2.93
2023-01-06T04:11:05.544Z,2.90
2023-01-06T04:14:07.167Z,2.87
2023-01-06T04:17:08.880Z,2.84
2023-01-06T04:20:14.793Z,2.80
2023-01-06T04:23:16.487Z,2.75
2023-01-06T04:26:18.115Z,2.70
2023-01-06T04:29:19.795Z,2.66
2023-01-06T04:32:21.367Z,2.61
2023-01-06T04:35:23.120Z,2.59
2023-01-06T04:38:24.696Z,2.58
2023-01-06T04:41:26.416Z,2.55
2023-01-06T04:44:27.989Z,2.52
2023-01-06T04:47:29.512Z,2.50
2023-01-06T04:50:31.172Z,2.49
2023-01-06T04:53:40.113Z,2.49
2023-01-06T04:56:41.774Z,2.48
2023-01-06T04:59:43.370Z,2.48
2023-01-06T05:02:45.494Z,2.49
2023-01-06T05:05:47.215Z,2.50
2023-01-06T05:08:48.934Z,2.50
2023-01-06T05:11:50.379Z,2.49
2023-01-06T05:14:51.958Z,2.43
2023-01-06T05:21:23.098Z,2.28
2023-01-06T05:24:24.645Z,2.28
2023-01-06T05:27:26.196Z,2.27
2023-01-06T05:30:27.847Z,2.28
2023-01-06T05:33:29.590Z,2.26
2023-01-06T05:36:31.114Z,2.27
2023-01-06T05:39:32.673Z,2.28
2023-01-06T05:42:34.190Z,2.29
2023-01-06T05:45:36.887Z,2.28
2023-01-06T05:48:39.236Z,2.33
2023-01-06T05:51:40.905Z,2.41
2023-01-06T05:54:42.484Z,2.47
2023-01-06T05:57:44.155Z,2.53
2023-01-06T06:00:45.739Z,2.56
2023-01-06T06:03:47.592Z,2.56
2023-01-06T06:06:49.252Z,2.55
2023-01-06T06:09:50.779Z,2.54
2023-01-06T06:12:52.285Z,2.52
2023-01-06T06:16:09.983Z,2.51
2023-01-06T06:19:12.536Z,2.51
2023-01-06T06:22:14.262Z,2.50
2023-01-06T06:25:15.755Z,2.49
2023-01-06T06:28:17.483Z,2.47
2023-01-06T06:31:24.736Z,2.47
2023-01-06T06:34:26.379Z,2.47
2023-01-06T06:37:28.100Z,2.46
2023-01-06T06:40:29.561Z,2.46
2023-01-06T06:43:31.971Z,2.46
2023-01-06T06:46:33.542Z,2.44
2023-01-06T06:49:35.155Z,2.45
2023-01-06T06:52:36.800Z,2.44
2023-01-06T06:55:38.285Z,2.39
2023-01-06T06:58:40.292Z,2.31
2023-01-06T07:01:42.003Z,2.25
2023-01-06T07:04:43.769Z,2.20
2023-01-06T07:07:45.746Z,2.14
2023-01-06T07:10:47.259Z,2.09
2023-01-06T07:13:49.150Z,2.03
2023-01-06T07:16:50.624Z,1.98
2023-01-06T07:19:52.140Z,1.94
2023-01-06T07:22:53.826Z,1.91
2023-01-06T07:26:11.788Z,1.89
2023-01-06T07:29:16.433Z,1.86
2023-01-06T07:32:18.113Z,1.85
2023-01-06T07:35:19.865Z,1.86
2023-01-06T07:38:22.907Z,1.86
2023-01-06T07:41:24.488Z,1.88
2023-01-06T07:44:26.067Z,1.89
2023-01-06T07:47:27.855Z,1.91
2023-01-06T07:50:29.830Z,1.91
2023-01-06T07:53:31.518Z,1.91
2023-01-06T07:56:33.387Z,1.90
2023-01-06T07:59:35.034Z,1.92
2023-01-06T08:02:36.672Z,1.95
2023-01-06T08:05:39.115Z,1.98
2023-01-06T08:08:41.279Z,2.03
2023-01-06T08:11:42.863Z,2.08
2023-01-06T08:14:44.506Z,2.14
2023-01-06T08:17:45.992Z,2.22
2023-01-06T08:20:47.610Z,2.28
2023-01-06T08:23:49.187Z,2.32
2023-01-06T08:26:50.928Z,2.39
2023-01-06T08:29:52.671Z,2.47
2023-01-06T08:32:57.615Z,2.50
2023-01-06T08:36:00.530Z,2.59
2023-01-06T08:39:02.185Z,2.74
2023-01-06T08:42:03.821Z,2.84
2023-01-06T08:45:06.108Z,2.90
2023-01-06T08:48:07.724Z,2.93
2023-01-06T08:51:11.421Z,2.96
2023-01-06T08:54:13.102Z,3.01
2023-01-06T08:57:14.586Z,3.01
2023-01-06T09:00:16.677Z,3.01
2023-01-06T09:03:18.606Z,3.05
2023-01-06T09:06:21.320Z,3.11
2023-01-06T09:09:22.988Z,3.16
2023-01-06T09:12:24.602Z,3.23
2023-01-06T09:15:26.216Z,3.24
2023-01-06T09:18:27.918Z,3.26
2023-01-06T09:21:29.401Z,3.33
2023-01-06T09:24:30.991Z,3.41
2023-01-06T09:27:32.514Z,3.47
2023-01-06T09:30:34.076Z,3.51
2023-01-06T09:33:35.920Z,3.59
2023-01-06T09:36:37.822Z,3.66
2023-01-06T09:39:39.379Z,3.77
2023-01-06T09:42:52.823Z,3.81
2023-01-06T09:45:58.126Z,3.88
2023-01-06T09:49:21.738Z,4.03
2023-01-06T09:52:33.813Z,4.21
2023-01-06T09:55:40.866Z,4.29
2023-01-06T09:59:04.722Z,4.27
2023-01-06T10:02:11.876Z,4.20
2023-01-06T10:05:25.945Z,4.16
2023-01-06T10:08:39.384Z,4.19
2023-01-06T10:12:01.894Z,4.33
2023-01-06T10:15:11.047Z,4.38
2023-01-06T10:18:22.187Z,4.48
2023-01-06T10:21:23.972Z,4.55
2023-01-06T10:24:28.261Z,4.74
2023-01-06T10:27:49.397Z,4.95
2023-01-06T10:30:53.049Z,4.90
2023-01-06T10:33:55.695Z,4.91
2023-01-06T10:37:16.151Z,4.91
2023-01-06T10:40:21.858Z,4.77
2023-01-06T10:43:23.490Z,4.67
2023-01-06T10:46:25.823Z,4.59
2023-01-06T10:49:27.448Z,4.51
2023-01-06T10:52:28.992Z,4.47
2023-01-06T10:55:48.107Z,4.42
2023-01-06T10:58:56.957Z,4.38
2023-01-06T11:01:58.712Z,4.38
2023-01-06T11:05:03.456Z,4.49
2023-01-06T11:08:07.833Z,4.93
2023-01-06T11:11:26.832Z,5.39
2023-01-06T11:14:31.835Z,5.66
2023-01-06T11:17:33.611Z,5.89
2023-01-06T11:20:35.279Z,5.87
2023-01-06T11:23:41.906Z,5.95
2023-01-06T11:26:45.730Z,5.93
2023-01-06T11:29:47.475Z,5.74
2023-01-06T11:32:48.907Z,5.55
2023-01-06T11:35:51.244Z,5.34
2023-01-06T11:39:04.110Z,5.18
2023-01-06T11:42:12.802Z,5.07
2023-01-06T11:45:34.661Z,5.13
2023-01-06T11:48:40.576Z,4.99
2023-01-06T11:51:42.198Z,4.76
2023-01-06T11:54:43.912Z,4.54
2023-01-06T11:57:59.935Z,4.40
2023-01-06T12:01:07.804Z,4.26
2023-01-06T12:04:17.462Z,4.16
2023-01-06T12:07:30.950Z,4.06
2023-01-06T12:10:33.603Z,4.04
2023-01-06T12:13:44.382Z,4.00
2023-01-06T12:16:58.423Z,3.99
2023-01-06T12:20:27.552Z,4.04
2023-01-06T12:23:35.992Z,4.18
2023-01-06T12:26:37.902Z,4.30
2023-01-06T12:29:39.773Z,4.44
2023-01-06T12:32:45.233Z,4.58
2023-01-06T12:35:49.880Z,4.52
2023-01-06T12:38:57.871Z,4.49
2023-01-06T12:42:43.924Z,4.48
2023-01-06T12:45:58.421Z,4.45
2023-01-06T12:49:04.638Z,4.51
2023-01-06T12:52:12.242Z,4.52
2023-01-06T12:55:21.018Z,4.56
2023-01-06T12:58:47.950Z,4.60
2023-01-06T13:01:56.441Z,4.68
2023-01-06T13:05:04.197Z,4.67
2023-01-06T13:08:05.760Z,4.66
2023-01-06T13:11:10.080Z,4.62
2023-01-06T13:14:20.605Z,4.50
2023-01-06T13:18:04.734Z,4.38
2023-01-06T13:21:14.788Z,4.28
2023-01-06T13:24:54.461Z,4.17
2023-01-06T13:27:58.967Z,4.11
2023-01-06T13:31:15.179Z,4.09
2023-01-06T13:34:51.974Z,4.05
2023-01-06T13:38:04.079Z,3.91
2023-01-06T13:41:10.518Z,3.82
2023-01-06T13:44:20.113Z,3.74
2023-01-06T13:47:22.769Z,3.63
2023-01-06T13:50:24.444Z,3.58
2023-01-06T13:53:25.950Z,3.51
2023-01-06T13:56:29.643Z,3.38
2023-01-06T13:59:51.762Z,3.29
2023-01-06T14:02:53.362Z,3.14
2023-01-06T14:05:55.043Z,3.00
2023-01-06T14:08:59.042Z,2.88
2023-01-06T14:12:14.581Z,2.76
2023-01-06T14:15:23.544Z,2.66
2023-01-06T14:18:34.288Z,2.63
2023-01-06T14:21:35.892Z,2.58
2023-01-06T14:24:37.413Z,2.50
2023-01-06T14:27:48.297Z,2.40
2023-01-06T14:30:52.219Z,2.30
2023-01-06T14:33:59.257Z,2.32
2023-01-06T14:37:02.704Z,2.45
2023-01-06T14:40:05.983Z,2.53
2023-01-06T14:43:28.686Z,2.56
2023-01-06T14:46:33.665Z,2.54
2023-01-06T14:49:46.081Z,2.49
2023-01-06T14:53:20.847Z,2.46
2023-01-06T14:56:24.700Z,2.37
2023-01-06T14:59:27.077Z,2.34
2023-01-06T15:02:29.041Z,2.22
2023-01-06T15:05:35.005Z,2.11
2023-01-06T15:08:36.706Z,2.10
2023-01-06T15:11:40.287Z,2.03
2023-01-06T15:14:41.904Z,2.03
2023-01-06T15:17:43.656Z,2.11
2023-01-06T15:20:45.192Z,2.15
2023-01-06T15:23:49.079Z,2.14
2023-01-06T15:26:52.205Z,1.96
2023-01-06T15:29:56.054Z,1.86
2023-01-06T15:32:57.910Z,1.91
2023-01-06T15:36:00.140Z,1.87
2023-01-06T15:39:03.459Z,1.86
2023-01-06T15:42:06.012Z,1.94
2023-01-06T15:45:23.038Z,2.01
2023-01-06T15:48:28.734Z,2.07
2023-01-06T15:51:30.284Z,2.10
2023-01-06T15:54:34.277Z,2.11
2023-01-06T15:57:39.637Z,2.06
2023-01-06T16:00:43.523Z,2.07
2023-01-06T16:03:53.811Z,2.04
2023-01-06T16:06:55.368Z,2.02
2023-01-06T16:09:56.891Z,2.03
2023-01-06T16:13:16.988Z,2.04
2023-01-06T16:16:18.501Z,1.98
2023-01-06T16:19:22.460Z,1.90
2023-01-06T16:22:54.329Z,1.88
2023-01-06T16:26:10.666Z,1.90
2023-01-06T16:30:07.353Z,1.93
2023-01-06T16:33:38.089Z,2.00
2023-01-06T16:36:39.862Z,2.04
2023-01-06T16:39:41.404Z,2.03
2023-01-06T16:42:43.572Z,2.04
2023-01-06T16:45:46.514Z,2.04
2023-01-06T16:48:48.618Z,2.04
2023-01-06T16:51:50.707Z,2.06
2023-01-06T16:54:53.477Z,2.09
2023-01-06T16:57:56.241Z,2.05
2023-01-06T17:01:12.756Z,1.98
2023-01-06T17:04:15.587Z,1.90
2023-01-06T17:07:17.288Z,1.92
2023-01-06T17:10:20.822Z,1.97
2023-01-06T17:13:22.590Z,1.97
2023-01-06T17:16:25.540Z,1.95
2023-01-06T17:19:29.419Z,1.96
2023-01-06T17:22:31.349Z,1.96
2023-01-06T17:25:32.975Z,1.92
2023-01-06T17:28:34.718Z,1.89
2023-01-06T17:31:41.883Z,1.88
2023-01-06T17:34:44.037Z,1.79
2023-01-06T17:37:45.835Z,1.77
2023-01-06T17:40:48.362Z,1.76
2023-01-06T17:43:49.892Z,1.75
2023-01-06T17:46:51.632Z,1.75
2023-01-06T17:49:57.715Z,1.76
2023-01-06T17:53:17.609Z,1.80
2023-01-06T17:56:21.782Z,1.82
2023-01-06T17:59:23.448Z,1.85
2023-01-06T18:02:33.924Z,1.87
2023-01-06T18:05:35.579Z,1.89
2023-01-06T18:08:37.969Z,1.86
2023-01-06T18:11:50.906Z,1.92
2023-01-06T18:14:53.063Z,2.01
2023-01-06T18:17:55.827Z,2.06
2023-01-06T18:21:04.704Z,2.04
2023-01-06T18:24:35.258Z,2.01
2023-01-06T18:27:37.030Z,1.99
2023-01-06T18:30:38.739Z,1.97
2023-01-06T18:33:40.257Z,1.94
2023-01-06T18:36:44.693Z,1.90
2023-01-06T18:39:48.344Z,1.89
2023-01-06T18:42:51.490Z,1.97
2023-01-06T18:45:54.916Z,2.07
2023-01-06T18:48:56.474Z,2.16
2023-01-06T18:51:58.497Z,2.26
2023-01-06T18:55:00.121Z,2.24
2023-01-06T18:58:03.088Z,2.20
2023-01-06T19:01:15.966Z,2.16
2023-01-06T19:04:30.676Z,2.14
2023-01-06T19:07:33.897Z,2.08
2023-01-06T19:10:35.466Z,2.03
2023-01-06T19:13:38.014Z,1.98
2023-01-06T19:16:50.812Z,1.94
2023-01-06T19:19:53.012Z,1.90
2023-01-06T19:22:55.832Z,1.87
2023-01-06T19:26:17.122Z,1.84
2023-01-06T19:29:18.853Z,1.77
2023-01-06T19:32:20.300Z,1.76
2023-01-06T19:35:23.129Z,1.75
2023-01-06T19:38:28.452Z,1.79
2023-01-06T19:41:32.667Z,1.84
2023-01-06T19:44:36.566Z,1.88
2023-01-06T19:47:40.034Z,1.91
2023-01-06T19:50:41.634Z,1.93
2023-01-06T19:53:59.635Z,1.92
2023-01-06T19:57:01.264Z,1.96
2023-01-06T20:00:03.223Z,1.97
2023-01-06T20:03:30.568Z,1.98
2023-01-06T20:06:32.148Z,1.98
2023-01-06T20:09:34.187Z,2.00
2023-01-06T20:12:36.266Z,2.02
2023-01-06T20:15:38.790Z,2.04
2023-01-06T20:18:40.412Z,2.07
2023-01-06T20:21:42.853Z,2.11
2023-01-06T20:24:44.488Z,2.12
2023-01-06T20:27:45.984Z,2.13
2023-01-06T20:30:47.552Z,2.18
2023-01-06T20:33:49.138Z,2.21
2023-01-06T20:36:50.759Z,2.25
2023-01-06T20:39:52.385Z,2.26
2023-01-06T20:42:54.024Z,2.29
2023-01-06T20:45:55.698Z,2.33
2023-01-06T20:48:57.397Z,2.36
2023-01-06T20:51:59.000Z,2.36
2023-01-06T20:55:01.066Z,2.40
2023-01-06T20:58:02.925Z,2.47
2023-01-06T21:01:04.720Z,2.56
2023-01-06T21:04:06.364Z,2.62
2023-01-06T21:07:08.097Z,2.75
2023-01-06T21:10:09.710Z,2.86
2023-01-06T21:13:11.340Z,2.95
2023-01-06T21:16:12.954Z,3.03
2023-01-06T21:19:14.645Z,3.13
2023-01-06T21:22:16.363Z,3.21
2023-01-06T21:25:18.097Z,3.27
2023-01-06T21:28:19.789Z,3.34
2023-01-06T21:31:21.563Z,3.40
2023-01-06T21:34:23.119Z,3.45
2023-01-06T21:37:24.835Z,3.47
2023-01-06T21:40:26.470Z,3.49
2023-01-06T21:43:28.069Z,3.53
2023-01-06T21:46:30.514Z,3.55
2023-01-06T21:49:32.615Z,3.62
2023-01-06T21:52:34.308Z,3.67
2023-01-06T21:55:36.086Z,3.69
2023-01-06T21:58:37.776Z,3.69
2023-01-06T22:01:39.567Z,3.73
2023-01-06T22:04:41.226Z,3.77
2023-01-06T22:07:45.974Z,3.82
2023-01-06T22:10:47.786Z,3.90
2023-01-06T22:13:49.723Z,4.01
2023-01-06T22:16:51.637Z,4.09
2023-01-06T22:19:54.302Z,4.21
2023-01-06T22:22:55.995Z,4.31
2023-01-06T22:25:57.510Z,4.41
2023-01-06T22:28:59.114Z,4.50
2023-01-06T22:32:02.282Z,4.61
2023-01-06T22:35:04.176Z,4.68
2023-01-06T22:38:05.929Z,4.75
2023-01-06T22:41:07.528Z,4.84
2023-01-06T22:44:09.029Z,4.92
2023-01-06T22:47:10.610Z,4.98
2023-01-06T22:50:12.234Z,5.03
2023-01-06T22:53:13.809Z,5.08
2023-01-06T22:56:15.445Z,5.09
2023-01-06T22:59:17.095Z,5.11
2023-01-06T23:02:19.278Z,5.12
2023-01-06T23:05:21.197Z,5.13
2023-01-06T23:08:22.932Z,5.18
2023-01-06T23:11:24.563Z,5.21
2023-01-06T23:14:26.115Z,5.24
2023-01-06T23:17:27.697Z,5.25
2023-01-06T23:20:29.239Z,5.29
2023-01-06T23:23:32.169Z,5.34
2023-01-06T23:26:38.965Z,5.38
2023-01-06T23:29:40.683Z,5.42
2023-01-06T23:32:42.184Z,5.45
2023-01-06T23:35:43.770Z,5.48
2023-01-06T23:38:45.844Z,5.51
2023-01-06T23:41:48.024Z,5.58
2023-01-06T23:44:49.612Z,5.66
2023-01-06T23:47:51.218Z,5.74
2023-01-06T23:50:53.215Z,5.80
2023-01-06T23:53:55.312Z,5.87
2023-01-06T23:56:56.863Z,5.91
2023-01-06T23:59:58.334Z,5.93
